Time;durP1;ratioP1;P1;durP2;ratioP2;P2;SDS_P1;SDS_P2;PMS_P1;PMS_P2;Temp;Humidity;BMP_temperature;BMP_pressure;BME280_temperature;BME280_humidity;BME280_pressure;Samples;Min_cycle;Max_cycle;Signal;HPM_P1;HPM_P2
2023/04/01 00:00:48;;;;;;;3.20;1.20;;;;;;;;;;4982385;28;20213;-71
2023/04/01 00:03:14;;;;;;;1.20;1.10;;;;;;;;;;4979382;28;20707;-71
2023/04/01 00:05:41;;;;;;;2.97;1.20;;;;;;;;;;4985154;28;20218;-69
2023/04/01 00:08:08;;;;;;;1.93;1.43;;;;;;;;;;4980246;28;20430;-70
2023/04/01 00:10:34;;;;;;;1.97;1.30;;;;;;;;;;4982662;28;20207;-69
2023/04/01 00:13:00;;;;;;;2.83;1.17;;;;;;;;;;4980670;28;20487;-68
2023/04/01 00:15:30;;;;;;;1.67;1.10;;;;;;;;;;4984592;28;20463;-70
2023/04/01 00:17:56;;;;;;;3.47;1.20;;;;;;;;;;4980096;28;20202;-69
2023/04/01 00:20:23;;;;;;;2.00;1.50;;;;;;;;;;4981388;28;20199;-69
2023/04/01 00:22:51;;;;;;;5.27;1.30;;;;;;;;;;4982657;28;20203;-70
2023/04/01 00:25:18;;;;;;;1.83;1.33;;;;;;;;;;4984629;28;20226;-70
2023/04/01 00:27:44;;;;;;;4.53;1.40;;;;;;;;;;4979091;28;20207;-68
2023/04/01 00:30:11;;;;;;;1.47;1.13;;;;;;;;;;4984611;28;20621;-71
2023/04/01 00:32:37;;;;;;;5.57;1.90;;;;;;;;;;4965073;28;20771;-70
2023/04/01 00:35:04;;;;;;;1.30;1.10;;;;;;;;;;4961020;28;20222;-71
2023/04/01 00:37:31;;;;;;;2.50;1.23;;;;;;;;;;4966543;28;20211;-72
2023/04/01 00:39:58;;;;;;;1.67;1.13;;;;;;;;;;4965838;28;20208;-72
2023/04/01 00:42:25;;;;;;;2.93;1.23;;;;;;;;;;4966447;28;20204;-72
2023/04/01 00:44:52;;;;;;;2.37;1.13;;;;;;;;;;4965852;28;20589;-70
2023/04/01 00:47:18;;;;;;;4.90;1.20;;;;;;;;;;4967410;28;20203;-72
2023/04/01 00:49:46;;;;;;;2.87;1.33;;;;;;;;;;4978851;28;20604;-72
2023/04/01 00:52:14;;;;;;;4.10;1.27;;;;;;;;;;4980862;28;20227;-72
2023/04/01 00:54:41;;;;;;;2.07;1.07;;;;;;;;;;4979074;28;20264;-72
2023/04/01 00:57:10;;;;;;;1.50;1.10;;;;;;;;;;4964745;28;20224;-71
2023/04/01 00:59:39;;;;;;;2.77;1.57;;;;;;;;;;4966490;28;20211;-72
2023/04/01 01:02:07;;;;;;;3.67;1.37;;;;;;;;;;4980407;28;20199;-72
2023/04/01 01:04:34;;;;;;;2.23;1.40;;;;;;;;;;4963490;28;20721;-71
2023/04/01 01:07:07;;;;;;;5.07;1.10;;;;;;;;;;4963594;28;20227;-72
2023/04/01 01:09:39;;;;;;;3.50;1.30;;;;;;;;;;4981627;28;20211;-71
2023/04/01 01:12:08;;;;;;;4.90;1.20;;;;;;;;;;4963978;28;20686;-72
2023/04/01 01:14:41;;;;;;;2.80;1.30;;;;;;;;;;4980740;28;20224;-71
2023/04/01 01:17:13;;;;;;;2.23;1.10;;;;;;;;;;4978128;28;20282;-72
2023/04/01 01:20:12;;;;;;;4.00;1.33;;;;;;;;;;4977668;28;20307;-71
2023/04/01 01:22:49;;;;;;;1.10;1.00;;;;;;;;;;4921202;29;20205;-72
2023/04/01 01:25:19;;;;;;;1.70;1.20;;;;;;;;;;4922976;29;20957;-72
2023/04/01 01:27:50;;;;;;;1.90;1.00;;;;;;;;;;4951729;28;20207;-72
2023/04/01 01:30:31;;;;;;;2.03;1.23;;;;;;;;;;4963774;28;20723;-71
2023/04/01 01:33:05;;;;;;;2.37;1.27;;;;;;;;;;4961440;28;20208;-72
2023/04/01 01:35:38;;;;;;;1.10;1.00;;;;;;;;;;4962988;28;20223;-71
2023/04/01 01:38:14;;;;;;;2.13;1.20;;;;;;;;;;4979573;28;20198;-71
2023/04/01 01:40:45;;;;;;;0.87;0.87;;;;;;;;;;4963076;28;20200;-69
2023/04/01 01:43:13;;;;;;;2.30;1.00;;;;;;;;;;4980791;28;20208;-70
2023/04/01 01:45:41;;;;;;;1.07;1.00;;;;;;;;;;4964770;28;20231;-71
2023/04/01 01:48:08;;;;;;;2.20;1.07;;;;;;;;;;4964182;28;20612;-70
2023/04/01 01:50:37;;;;;;;2.40;1.27;;;;;;;;;;4965124;28;20611;-71
2023/04/01 01:53:04;;;;;;;2.37;1.43;;;;;;;;;;4965941;28;20319;-71
2023/04/01 01:55:31;;;;;;;2.50;1.30;;;;;;;;;;4969188;28;20226;-70
2023/04/01 01:57:59;;;;;;;1.63;1.30;;;;;;;;;;4983896;28;20678;-70
2023/04/01 02:00:26;;;;;;;1.93;1.40;;;;;;;;;;4967863;28;20210;-71
2023/04/01 02:02:53;;;;;;;4.10;1.37;;;;;;;;;;4982555;28;20220;-69
2023/04/01 02:05:21;;;;;;;2.17;0.93;;;;;;;;;;4961520;28;20226;-71
2023/04/01 02:07:53;;;;;;;1.20;1.10;;;;;;;;;;4981681;28;20592;-70
2023/04/01 02:10:22;;;;;;;1.23;0.90;;;;;;;;;;4985971;28;20204;-71
2023/04/01 02:12:49;;;;;;;2.20;1.13;;;;;;;;;;4960142;28;20313;-71
2023/04/01 02:15:16;;;;;;;3.37;1.17;;;;;;;;;;4967963;28;20229;-71
2023/04/01 02:17:44;;;;;;;1.47;1.17;;;;;;;;;;4979074;28;20210;-71
2023/04/01 02:20:14;;;;;;;2.27;1.03;;;;;;;;;;4966470;28;20643;-69
2023/04/01 02:22:42;;;;;;;1.27;1.00;;;;;;;;;;4967590;28;20195;-70
2023/04/01 02:25:12;;;;;;;1.90;1.20;;;;;;;;;;4984402;28;20250;-70
2023/04/01 02:27:41;;;;;;;1.50;1.30;;;;;;;;;;4968401;28;20208;-71
2023/04/01 02:30:08;;;;;;;2.77;1.33;;;;;;;;;;4964867;28;20216;-70
2023/04/01 02:32:35;;;;;;;2.37;1.20;;;;;;;;;;4966212;28;20572;-69
2023/04/01 02:35:05;;;;;;;1.70;1.20;;;;;;;;;;4981150;28;20647;-70
2023/04/01 02:37:31;;;;;;;1.83;1.10;;;;;;;;;;4969006;28;20262;-70
2023/04/01 02:39:59;;;;;;;2.37;1.37;;;;;;;;;;4981390;28;20303;-70
2023/04/01 02:42:27;;;;;;;2.33;1.13;;;;;;;;;;4983857;28;20217;-71
2023/04/01 02:44:53;;;;;;;1.73;1.07;;;;;;;;;;4960869;28;20236;-69
2023/04/01 02:47:19;;;;;;;2.07;1.00;;;;;;;;;;4944238;28;20208;-69
2023/04/01 02:49:45;;;;;;;2.27;1.47;;;;;;;;;;4943981;28;20464;-70
2023/04/01 02:52:12;;;;;;;3.60;1.23;;;;;;;;;;4961546;28;20212;-71
2023/04/01 02:54:38;;;;;;;4.03;1.10;;;;;;;;;;4947418;28;20226;-69
2023/04/01 02:57:08;;;;;;;1.13;1.03;;;;;;;;;;4965770;28;20214;-71
2023/04/01 02:59:36;;;;;;;1.33;1.07;;;;;;;;;;4965241;28;20226;-70
2023/04/01 03:02:03;;;;;;;1.73;1.10;;;;;;;;;;4963167;28;20213;-71
2023/04/01 03:04:29;;;;;;;1.10;1.00;;;;;;;;;;4953132;28;21127;-70
2023/04/01 03:06:56;;;;;;;2.07;1.27;;;;;;;;;;4965756;28;20736;-71
2023/04/01 03:09:22;;;;;;;3.37;1.20;;;;;;;;;;4948199;28;20204;-69
2023/04/01 03:11:49;;;;;;;5.13;1.23;;;;;;;;;;4964414;28;20702;-69
2023/04/01 03:14:15;;;;;;;1.97;1.30;;;;;;;;;;4945677;28;20259;-70
2023/04/01 03:16:43;;;;;;;4.13;1.20;;;;;;;;;;4945980;28;20245;-71
2023/04/01 03:19:10;;;;;;;2.87;1.40;;;;;;;;;;4946554;28;20775;-70
2023/04/01 03:21:36;;;;;;;2.50;1.50;;;;;;;;;;4948815;28;20664;-71
2023/04/01 03:24:02;;;;;;;1.27;1.17;;;;;;;;;;4945308;28;20730;-71
2023/04/01 03:26:29;;;;;;;2.00;1.40;;;;;;;;;;4960096;28;20720;-72
2023/04/01 03:28:56;;;;;;;2.30;1.10;;;;;;;;;;4963942;28;20567;-70
2023/04/01 03:31:22;;;;;;;4.37;1.20;;;;;;;;;;4949113;28;20216;-71
2023/04/01 03:33:54;;;;;;;1.10;1.03;;;;;;;;;;4959471;28;20219;-71
2023/04/01 03:36:21;;;;;;;0.97;0.90;;;;;;;;;;4962353;28;20569;-70
2023/04/01 03:38:47;;;;;;;5.40;1.20;;;;;;;;;;4963154;28;20234;-71
2023/04/01 03:41:19;;;;;;;2.83;1.30;;;;;;;;;;4964167;28;20576;-70
2023/04/01 03:43:46;;;;;;;1.80;1.37;;;;;;;;;;4962896;28;20200;-69
2023/04/01 03:46:17;;;;;;;3.33;1.43;;;;;;;;;;4978682;28;20280;-71
2023/04/01 03:48:43;;;;;;;1.27;1.10;;;;;;;;;;4963665;28;20200;-71
2023/04/01 03:51:11;;;;;;;1.83;1.10;;;;;;;;;;4968722;28;20686;-71
2023/04/01 03:53:37;;;;;;;1.27;1.17;;;;;;;;;;4981088;28;20223;-71
2023/04/01 03:56:06;;;;;;;1.73;1.00;;;;;;;;;;4962758;28;20221;-71
2023/04/01 03:58:33;;;;;;;1.20;1.10;;;;;;;;;;4981667;28;20204;-71
2023/04/01 04:01:02;;;;;;;2.73;1.33;;;;;;;;;;4965231;28;20744;-72
2023/04/01 04:03:29;;;;;;;3.20;1.20;;;;;;;;;;4965859;28;20292;-71
2023/04/01 04:05:56;;;;;;;1.17;1.07;;;;;;;;;;4967043;28;20289;-71
2023/04/01 04:08:24;;;;;;;1.30;1.20;;;;;;;;;;4982340;28;20243;-71
2023/04/01 04:10:55;;;;;;;1.67;1.20;;;;;;;;;;4963817;28;20210;-70
2023/04/01 04:13:21;;;;;;;2.70;1.30;;;;;;;;;;4981679;28;20211;-71
2023/04/01 04:15:54;;;;;;;3.33;1.23;;;;;;;;;;4965792;28;20229;-72
2023/04/01 04:18:20;;;;;;;1.57;1.20;;;;;;;;;;4965674;28;20734;-71
2023/04/01 04:20:51;;;;;;;2.60;1.30;;;;;;;;;;4983791;28;20204;-68
2023/04/01 04:23:19;;;;;;;1.13;1.03;;;;;;;;;;4982366;28;20199;-70
2023/04/01 04:25:54;;;;;;;3.00;1.13;;;;;;;;;;4979423;28;20215;-70
2023/04/01 04:28:21;;;;;;;1.60;1.30;;;;;;;;;;4980574;28;20291;-71
2023/04/01 04:30:47;;;;;;;2.97;1.20;;;;;;;;;;4966986;28;20195;-71
2023/04/01 04:33:14;;;;;;;1.77;1.00;;;;;;;;;;4984726;28;20233;-69
2023/04/01 04:35:40;;;;;;;1.60;1.50;;;;;;;;;;4994562;28;20677;-71
2023/04/01 04:38:06;;;;;;;1.23;1.10;;;;;;;;;;4976305;28;20202;-69
2023/04/01 04:40:39;;;;;;;1.33;1.07;;;;;;;;;;4988673;28;20230;-68
2023/04/01 04:43:06;;;;;;;1.67;1.47;;;;;;;;;;4988532;28;20224;-69
2023/04/01 04:45:33;;;;;;;3.50;1.20;;;;;;;;;;4952717;28;1009400;-70
2023/04/01 04:48:00;;;;;;;1.20;1.10;;;;;;;;;;4984892;28;20201;-72
2023/04/01 04:50:51;;;;;;;4.33;1.20;;;;;;;;;;5001087;28;20201;-71
2023/04/01 04:53:21;;;;;;;1.83;1.30;;;;;;;;;;4981435;28;20247;-72
2023/04/01 04:55:48;;;;;;;7.73;1.70;;;;;;;;;;4975760;28;20290;-70
2023/04/01 04:58:24;;;;;;;2.77;1.07;;;;;;;;;;4977306;28;20196;-72
2023/04/01 05:00:51;;;;;;;3.83;1.30;;;;;;;;;;4980953;28;20209;-72
2023/04/01 05:03:22;;;;;;;2.03;1.37;;;;;;;;;;4978317;28;20200;-72
2023/04/01 05:05:49;;;;;;;1.47;1.00;;;;;;;;;;4995554;28;20277;-72
2023/04/01 05:08:15;;;;;;;1.20;1.10;;;;;;;;;;4985458;28;21022;-71
2023/04/01 05:10:48;;;;;;;2.17;1.23;;;;;;;;;;4962418;28;20198;-70
2023/04/01 05:13:14;;;;;;;3.80;1.20;;;;;;;;;;4964198;28;20285;-71
2023/04/01 05:15:43;;;;;;;3.00;1.23;;;;;;;;;;4961242;28;20730;-70
2023/04/01 05:18:10;;;;;;;1.97;1.40;;;;;;;;;;4977694;28;20746;-69
2023/04/01 05:20:36;;;;;;;3.27;1.33;;;;;;;;;;4963393;28;20208;-70
2023/04/01 05:23:03;;;;;;;3.73;1.10;;;;;;;;;;4960649;28;20566;-72
2023/04/01 05:25:29;;;;;;;4.53;1.43;;;;;;;;;;4965646;28;20224;-71
2023/04/01 05:27:55;;;;;;;3.73;1.43;;;;;;;;;;4968712;28;20232;-72
2023/04/01 05:30:22;;;;;;;3.53;1.60;;;;;;;;;;4962846;28;20210;-71
2023/04/01 05:33:01;;;;;;;1.80;1.20;;;;;;;;;;4965877;28;20215;-70
2023/04/01 05:35:29;;;;;;;4.33;1.47;;;;;;;;;;4963960;28;20294;-72
2023/04/01 05:37:56;;;;;;;2.80;1.50;;;;;;;;;;4961932;28;20201;-70
2023/04/01 05:40:22;;;;;;;2.47;1.47;;;;;;;;;;4963748;28;20215;-69
2023/04/01 05:42:48;;;;;;;4.37;1.43;;;;;;;;;;4967003;28;20213;-69
2023/04/01 05:45:16;;;;;;;3.30;1.33;;;;;;;;;;4969230;28;20223;-72
2023/04/01 05:48:21;;;;;;;3.57;1.47;;;;;;;;;;4984262;28;20204;-71
2023/04/01 05:50:48;;;;;;;2.00;1.47;;;;;;;;;;4967764;28;20639;-71
2023/04/01 05:53:14;;;;;;;4.23;1.43;;;;;;;;;;4970194;28;20214;-71
2023/04/01 05:55:42;;;;;;;5.53;1.50;;;;;;;;;;4968566;28;20587;-72
2023/04/01 05:58:09;;;;;;;1.53;1.30;;;;;;;;;;4969593;28;20212;-70
2023/04/01 06:00:37;;;;;;;1.40;1.20;;;;;;;;;;4967898;28;20198;-71
2023/04/01 06:03:03;;;;;;;2.43;1.40;;;;;;;;;;4967159;28;20289;-69
2023/04/01 06:05:36;;;;;;;2.77;1.23;;;;;;;;;;4983497;28;20232;-71
2023/04/01 06:08:06;;;;;;;1.30;1.20;;;;;;;;;;4969523;28;20200;-72
2023/04/01 06:10:38;;;;;;;2.47;1.60;;;;;;;;;;4969609;28;20205;-72
2023/04/01 06:13:05;;;;;;;3.57;1.90;;;;;;;;;;4983307;28;20605;-70
2023/04/01 06:15:37;;;;;;;2.40;1.50;;;;;;;;;;4967274;28;20597;-71
2023/04/01 06:18:19;;;;;;;2.57;1.13;;;;;;;;;;4980449;28;20213;-69
2023/04/01 06:20:51;;;;;;;1.73;1.37;;;;;;;;;;4949535;28;20217;-71
2023/04/01 06:23:39;;;;;;;1.77;1.47;;;;;;;;;;4969822;28;20776;-71
2023/04/01 06:26:13;;;;;;;2.23;1.70;;;;;;;;;;4962889;28;20357;-70
2023/04/01 06:28:47;;;;;;;1.40;1.30;;;;;;;;;;4970850;28;20227;-69
2023/04/01 06:31:20;;;;;;;2.77;1.40;;;;;;;;;;4969361;28;20550;-71
2023/04/01 06:33:53;;;;;;;3.97;1.30;;;;;;;;;;4965230;28;20225;-72
2023/04/01 06:36:28;;;;;;;2.30;1.50;;;;;;;;;;4963625;28;20641;-69
2023/04/01 06:39:09;;;;;;;4.03;1.50;;;;;;;;;;4982471;28;20401;-72
2023/04/01 06:41:40;;;;;;;2.20;1.60;;;;;;;;;;4983255;28;20272;-71
2023/04/01 06:44:13;;;;;;;2.53;1.40;;;;;;;;;;4984184;28;20300;-72
2023/04/01 06:46:59;;;;;;;4.10;1.60;;;;;;;;;;4983348;28;20336;-69
2023/04/01 06:49:53;;;;;;;2.50;1.43;;;;;;;;;;4981944;28;20211;-72
2023/04/01 06:52:44;;;;;;;2.60;1.47;;;;;;;;;;4988294;28;20223;-72
2023/04/01 06:55:35;;;;;;;1.27;1.17;;;;;;;;;;4984526;28;20288;-71
2023/04/01 06:58:21;;;;;;;2.40;1.30;;;;;;;;;;4966290;28;20487;-72
2023/04/01 07:00:50;;;;;;;2.80;1.20;;;;;;;;;;4967502;28;20205;-71
2023/04/01 07:03:20;;;;;;;1.70;1.20;;;;;;;;;;4981378;28;20291;-72
2023/04/01 07:05:46;;;;;;;4.57;1.30;;;;;;;;;;4985469;28;20273;-72
2023/04/01 07:08:16;;;;;;;3.23;1.30;;;;;;;;;;4966099;28;20212;-72
2023/04/01 07:10:44;;;;;;;3.53;1.30;;;;;;;;;;4965542;28;20209;-72
2023/04/01 07:13:31;;;;;;;1.63;1.23;;;;;;;;;;4986816;28;20710;-72
2023/04/01 07:16:05;;;;;;;2.97;1.30;;;;;;;;;;4968176;28;20236;-72
2023/04/01 07:18:38;;;;;;;1.97;1.40;;;;;;;;;;4963934;28;20207;-69
2023/04/01 07:21:05;;;;;;;3.43;1.63;;;;;;;;;;4966147;28;20209;-71
2023/04/01 07:23:37;;;;;;;1.90;0.93;;;;;;;;;;4966730;28;20207;-71
2023/04/01 07:26:25;;;;;;;1.43;1.20;;;;;;;;;;4967993;28;20698;-71
2023/04/01 07:28:54;;;;;;;3.57;1.40;;;;;;;;;;4984019;28;20301;-72
2023/04/01 07:31:43;;;;;;;1.83;1.10;;;;;;;;;;4968029;28;20203;-71
2023/04/01 07:34:12;;;;;;;2.30;1.27;;;;;;;;;;4966052;28;20207;-71
2023/04/01 07:36:43;;;;;;;3.07;1.53;;;;;;;;;;4972691;28;20202;-72
2023/04/01 07:39:16;;;;;;;2.13;1.13;;;;;;;;;;4980656;28;20287;-69
2023/04/01 07:42:02;;;;;;;2.37;1.20;;;;;;;;;;4982887;28;20205;-72
2023/04/01 07:44:32;;;;;;;2.30;0.93;;;;;;;;;;4979252;28;20232;-72
2023/04/01 07:47:16;;;;;;;4.03;1.03;;;;;;;;;;4967845;28;20609;-72
2023/04/01 07:49:50;;;;;;;4.23;1.90;;;;;;;;;;4964959;28;20694;-72
2023/04/01 07:52:19;;;;;;;1.70;1.40;;;;;;;;;;4967361;28;20197;-71
2023/04/01 07:54:51;;;;;;;2.00;1.17;;;;;;;;;;4966043;28;20235;-71
2023/04/01 07:57:20;;;;;;;3.00;1.30;;;;;;;;;;4983341;28;20195;-72
2023/04/01 07:59:58;;;;;;;2.20;1.30;;;;;;;;;;4959181;28;20220;-70
2023/04/01 08:02:32;;;;;;;2.03;1.10;;;;;;;;;;4965708;28;20211;-71
2023/04/01 08:05:04;;;;;;;1.50;0.90;;;;;;;;;;4969102;28;20682;-72
2023/04/01 08:07:35;;;;;;;1.97;1.27;;;;;;;;;;4978936;28;20202;-71
2023/04/01 08:10:31;;;;;;;1.83;1.10;;;;;;;;;;4969969;28;20305;-72
2023/04/01 08:13:19;;;;;;;3.53;1.43;;;;;;;;;;4983665;28;20579;-72
2023/04/01 08:16:09;;;;;;;2.53;1.20;;;;;;;;;;4980739;28;20557;-71
2023/04/01 08:18:47;;;;;;;2.63;1.40;;;;;;;;;;4959760;28;20217;-70
2023/04/01 08:21:16;;;;;;;2.00;1.20;;;;;;;;;;4982275;28;20283;-72
2023/04/01 08:23:45;;;;;;;3.97;1.70;;;;;;;;;;4983139;28;20205;-72
2023/04/01 08:26:18;;;;;;;3.33;1.83;;;;;;;;;;4980230;28;20247;-72
2023/04/01 08:28:47;;;;;;;2.23;1.60;;;;;;;;;;4960943;28;20242;-71
2023/04/01 08:31:16;;;;;;;3.37;2.70;;;;;;;;;;4982679;28;20204;-71
2023/04/01 08:33:45;;;;;;;8.70;4.70;;;;;;;;;;4962990;28;20213;-70
2023/04/01 08:36:15;;;;;;;6.77;5.07;;;;;;;;;;4965288;28;20232;-71
2023/04/01 08:38:47;;;;;;;4.07;3.43;;;;;;;;;;4952665;28;20224;-70
2023/04/01 08:41:30;;;;;;;3.80;1.40;;;;;;;;;;4959730;28;20658;-70
2023/04/01 08:44:32;;;;;;;1.93;1.17;;;;;;;;;;4974269;28;20236;-72
2023/04/01 08:47:09;;;;;;;1.20;1.10;;;;;;;;;;4972059;28;20205;-72
2023/04/01 08:49:43;;;;;;;1.67;1.40;;;;;;;;;;4957558;28;20213;-72
2023/04/01 08:52:26;;;;;;;1.63;0.97;;;;;;;;;;4960821;28;20209;-72
2023/04/01 08:55:00;;;;;;;1.80;0.97;;;;;;;;;;4960074;28;20267;-70
2023/04/01 08:57:54;;;;;;;2.63;1.30;;;;;;;;;;4976649;28;20208;-72
2023/04/01 09:00:47;;;;;;;1.63;1.10;;;;;;;;;;4974161;28;20204;-72
2023/04/01 09:03:37;;;;;;;1.50;1.40;;;;;;;;;;4957353;28;20295;-72
2023/04/01 09:06:13;;;;;;;2.73;0.80;;;;;;;;;;4958173;28;20583;-72
2023/04/01 09:08:49;;;;;;;0.93;0.90;;;;;;;;;;4977895;28;20205;-69
2023/04/01 09:11:21;;;;;;;2.00;0.80;;;;;;;;;;4959540;28;20741;-70
2023/04/01 09:14:03;;;;;;;2.63;0.83;;;;;;;;;;4979299;28;20215;-70
2023/04/01 09:16:39;;;;;;;1.20;0.80;;;;;;;;;;4960042;28;20233;-71
2023/04/01 09:19:16;;;;;;;1.70;0.90;;;;;;;;;;4939139;28;20244;-71
2023/04/01 09:21:48;;;;;;;1.77;1.03;;;;;;;;;;4943450;28;20205;-72
2023/04/01 09:24:21;;;;;;;1.27;0.70;;;;;;;;;;4963189;28;20194;-72
2023/04/01 09:26:59;;;;;;;0.80;0.80;;;;;;;;;;4940008;28;20253;-71
2023/04/01 09:29:36;;;;;;;1.87;0.90;;;;;;;;;;4954761;28;20655;-72
2023/04/01 09:32:21;;;;;;;1.00;0.90;;;;;;;;;;4939916;28;20206;-72
2023/04/01 09:34:55;;;;;;;1.27;1.07;;;;;;;;;;4940666;28;20216;-72
2023/04/01 09:37:32;;;;;;;2.13;0.90;;;;;;;;;;4943938;28;20204;-72
2023/04/01 09:40:10;;;;;;;1.10;1.00;;;;;;;;;;4970367;28;22114;-72
2023/04/01 09:42:45;;;;;;;1.77;0.90;;;;;;;;;;4957451;28;20204;-70
2023/04/01 09:45:41;;;;;;;1.67;0.70;;;;;;;;;;4960452;28;20242;-72
2023/04/01 09:48:14;;;;;;;0.97;0.90;;;;;;;;;;4970270;28;20341;-72
2023/04/01 09:50:45;;;;;;;1.50;0.80;;;;;;;;;;4961044;28;20212;-71
2023/04/01 09:53:18;;;;;;;0.90;0.90;;;;;;;;;;4965686;28;20206;-71
2023/04/01 09:56:00;;;;;;;1.00;0.90;;;;;;;;;;4975672;28;20244;-71
2023/04/01 09:58:43;;;;;;;1.70;0.70;;;;;;;;;;4962484;28;20194;-72
2023/04/01 10:01:57;;;;;;;2.30;0.90;;;;;;;;;;4975107;28;20205;-72
2023/04/01 10:04:45;;;;;;;1.37;0.97;;;;;;;;;;4960704;28;20665;-72
2023/04/01 10:07:29;;;;;;;2.43;1.00;;;;;;;;;;4978272;28;20207;-71
2023/04/01 10:10:11;;;;;;;3.13;1.23;;;;;;;;;;4976594;28;20287;-72
2023/04/01 10:13:05;;;;;;;2.60;1.17;;;;;;;;;;4965475;28;20209;-72
2023/04/01 10:15:51;;;;;;;1.87;1.00;;;;;;;;;;4943255;28;20235;-72
2023/04/01 10:18:45;;;;;;;1.03;0.90;;;;;;;;;;4956378;28;20916;-72
2023/04/01 10:21:20;;;;;;;2.70;1.40;;;;;;;;;;4967464;28;20209;-71
2023/04/01 10:23:56;;;;;;;1.43;1.33;;;;;;;;;;4963205;28;20650;-69
2023/04/01 10:26:33;;;;;;;2.87;1.20;;;;;;;;;;4975636;28;20224;-71
2023/04/01 10:29:32;;;;;;;2.43;1.10;;;;;;;;;;4964260;28;20284;-71
2023/04/01 10:32:28;;;;;;;1.00;0.80;;;;;;;;;;4975452;28;20220;-72
2023/04/01 10:35:13;;;;;;;1.00;0.90;;;;;;;;;;4976903;28;20232;-71
2023/04/01 10:37:55;;;;;;;1.10;0.83;;;;;;;;;;4958005;28;20257;-71
2023/04/01 10:40:38;;;;;;;8.67;3.00;;;;;;;;;;4975667;28;20208;-70
2023/04/01 10:43:50;;;;;;;0.80;0.60;;;;;;;;;;4977348;28;20209;-71
2023/04/01 10:46:47;;;;;;;1.20;0.47;;;;;;;;;;5014561;23;20237;-73
2023/04/01 10:49:27;;;;;;;1.67;0.60;;;;;;;;;;5004636;28;20271;-73
2023/04/01 10:52:17;;;;;;;0.60;0.60;;;;;;;;;;5004079;28;20200;-72
2023/04/01 10:55:28;;;;;;;0.80;0.63;;;;;;;;;;5012042;28;20735;-73
2023/04/01 10:58:32;;;;;;;0.60;0.60;;;;;;;;;;5024389;28;20199;-73
2023/04/01 11:01:30;;;;;;;0.80;0.70;;;;;;;;;;5021281;28;20275;-73
2023/04/01 11:04:39;;;;;;;2.47;0.60;;;;;;;;;;5023389;28;20223;-73
2023/04/01 11:07:48;;;;;;;1.03;0.73;;;;;;;;;;5013460;28;20217;-73
2023/04/01 11:10:41;;;;;;;1.87;1.00;;;;;;;;;;5000980;28;20545;-73
2023/04/01 11:13:17;;;;;;;3.30;0.90;;;;;;;;;;4971570;28;20203;-73
2023/04/01 11:16:08;;;;;;;1.07;0.80;;;;;;;;;;5022152;28;20728;-74
2023/04/01 11:18:58;;;;;;;2.53;1.50;;;;;;;;;;5010260;28;20204;-73
2023/04/01 11:21:40;;;;;;;7.07;4.13;;;;;;;;;;5011668;28;20207;-73
2023/04/01 11:24:21;;;;;;;1.27;1.03;;;;;;;;;;5003377;28;20201;-73
2023/04/01 11:27:11;;;;;;;0.60;0.60;;;;;;;;;;5015710;28;20216;-72
2023/04/01 11:30:02;;;;;;;2.90;1.00;;;;;;;;;;5022839;28;20572;-73
2023/04/01 11:32:39;;;;;;;2.97;0.83;;;;;;;;;;5003754;28;20200;-73
2023/04/01 11:35:19;;;;;;;1.93;0.80;;;;;;;;;;5022060;28;20227;-72
2023/04/01 11:37:50;;;;;;;2.97;0.90;;;;;;;;;;5021561;28;20247;-72
2023/04/01 11:40:38;;;;;;;0.97;0.80;;;;;;;;;;5023554;28;20564;-71
2023/04/01 11:43:46;;;;;;;0.80;0.80;;;;;;;;;;5022788;28;20242;-72
2023/04/01 11:46:34;;;;;;;3.00;0.80;;;;;;;;;;5019516;28;20263;-72
2023/04/01 11:49:06;;;;;;;2.23;0.90;;;;;;;;;;5028289;28;20229;-72
2023/04/01 11:51:59;;;;;;;1.10;0.80;;;;;;;;;;5020654;28;20561;-72
2023/04/01 11:54:32;;;;;;;0.93;0.93;;;;;;;;;;5019289;28;20716;-72
2023/04/01 11:57:13;;;;;;;1.17;0.90;;;;;;;;;;5024446;28;20567;-72
2023/04/01 11:59:45;;;;;;;0.97;0.77;;;;;;;;;;5024338;28;20205;-72
2023/04/01 12:02:15;;;;;;;0.83;0.83;;;;;;;;;;5018765;28;20193;-72
2023/04/01 12:04:54;;;;;;;1.33;1.10;;;;;;;;;;5020466;28;20200;-72
2023/04/01 12:07:25;;;;;;;1.77;1.00;;;;;;;;;;5028664;28;20195;-72
2023/04/01 12:09:57;;;;;;;1.70;1.13;;;;;;;;;;5027318;28;20196;-72
2023/04/01 12:12:28;;;;;;;1.53;1.10;;;;;;;;;;5020422;28;20240;-72
2023/04/01 12:14:58;;;;;;;1.37;1.10;;;;;;;;;;5027017;28;20655;-72
2023/04/01 12:17:29;;;;;;;1.57;1.10;;;;;;;;;;5027612;28;20227;-72
2023/04/01 12:19:58;;;;;;;1.03;0.80;;;;;;;;;;5026989;28;20212;-72
2023/04/01 12:22:31;;;;;;;1.83;0.80;;;;;;;;;;5028383;28;20199;-72
2023/04/01 12:25:05;;;;;;;0.70;0.70;;;;;;;;;;5026573;28;20230;-72
2023/04/01 12:27:41;;;;;;;0.97;0.67;;;;;;;;;;5010658;28;20213;-72
2023/04/01 12:30:16;;;;;;;2.67;0.80;;;;;;;;;;5020027;28;20212;-71
2023/04/01 12:32:46;;;;;;;1.73;0.90;;;;;;;;;;5026170;28;20283;-72
2023/04/01 12:35:24;;;;;;;0.70;0.53;;;;;;;;;;5025578;28;20322;-72
2023/04/01 12:37:53;;;;;;;0.60;0.60;;;;;;;;;;5026007;28;20207;-72
2023/04/01 12:40:35;;;;;;;1.33;0.67;;;;;;;;;;5007174;28;20559;-72
2023/04/01 12:43:15;;;;;;;0.90;0.60;;;;;;;;;;5009877;28;20526;-72
2023/04/01 12:45:46;;;;;;;0.60;0.60;;;;;;;;;;5027530;28;20219;-72
2023/04/01 12:48:19;;;;;;;0.90;0.57;;;;;;;;;;5027665;28;20219;-72
2023/04/01 12:51:06;;;;;;;0.73;0.60;;;;;;;;;;5024651;28;20577;-72
2023/04/01 12:53:39;;;;;;;0.63;0.50;;;;;;;;;;5026599;28;20204;-72
2023/04/01 12:56:10;;;;;;;0.83;0.60;;;;;;;;;;5026808;28;20223;-72
2023/04/01 12:58:51;;;;;;;1.13;0.60;;;;;;;;;;5020365;28;20196;-72
2023/04/01 13:01:24;;;;;;;0.70;0.60;;;;;;;;;;5018601;28;20443;-72
2023/04/01 13:04:08;;;;;;;1.20;1.10;;;;;;;;;;5026990;28;20210;-72
2023/04/01 13:06:55;;;;;;;0.93;0.90;;;;;;;;;;4987331;28;20310;-72
2023/04/01 13:09:26;;;;;;;2.20;0.70;;;;;;;;;;5026539;28;20204;-71
2023/04/01 13:12:01;;;;;;;1.07;0.67;;;;;;;;;;5022333;28;20207;-71
2023/04/01 13:14:37;;;;;;;4.13;1.77;;;;;;;;;;5016153;28;20206;-71
2023/04/01 13:17:08;;;;;;;12.70;3.30;;;;;;;;;;5027539;28;20215;-71
2023/04/01 13:19:37;;;;;;;7.77;2.67;;;;;;;;;;5027614;28;20218;-71
2023/04/01 13:22:07;;;;;;;1.80;1.00;;;;;;;;;;5006786;28;20194;-71
2023/04/01 13:24:44;;;;;;;0.63;0.63;;;;;;;;;;5027007;28;20204;-71
2023/04/01 13:27:15;;;;;;;0.70;0.70;;;;;;;;;;5022918;28;20192;-71
2023/04/01 13:29:44;;;;;;;0.70;0.70;;;;;;;;;;5021984;28;20208;-72
2023/04/01 13:32:19;;;;;;;1.50;0.90;;;;;;;;;;5024419;28;20235;-71
2023/04/01 13:34:51;;;;;;;1.37;0.67;;;;;;;;;;5023725;28;20234;-71
2023/04/01 13:37:24;;;;;;;1.10;0.90;;;;;;;;;;5016359;28;20732;-71
2023/04/01 13:39:58;;;;;;;0.93;0.83;;;;;;;;;;5024181;28;20208;-71
2023/04/01 13:42:26;;;;;;;1.00;0.90;;;;;;;;;;5016553;28;20202;-72
2023/04/01 13:44:57;;;;;;;0.70;0.70;;;;;;;;;;5025591;28;20514;-71
2023/04/01 13:47:27;;;;;;;0.60;0.60;;;;;;;;;;5029040;28;20200;-71
2023/04/01 13:50:06;;;;;;;1.00;0.80;;;;;;;;;;5027171;28;20206;-72
2023/04/01 13:52:44;;;;;;;1.63;1.20;;;;;;;;;;5025003;28;20274;-71
2023/04/01 13:55:25;;;;;;;1.80;0.90;;;;;;;;;;5018094;28;20220;-71
2023/04/01 13:58:05;;;;;;;1.23;1.13;;;;;;;;;;5021876;28;20292;-72
2023/04/01 14:00:43;;;;;;;1.20;1.10;;;;;;;;;;5026730;28;20196;-72
2023/04/01 14:03:15;;;;;;;1.13;1.00;;;;;;;;;;5006400;28;20529;-71
2023/04/01 14:05:50;;;;;;;2.90;1.33;;;;;;;;;;5030341;28;20599;-72
2023/04/01 14:08:21;;;;;;;1.33;0.97;;;;;;;;;;5020751;28;20230;-72
2023/04/01 14:10:51;;;;;;;1.00;0.87;;;;;;;;;;5021497;28;20564;-72
2023/04/01 14:13:22;;;;;;;1.03;0.70;;;;;;;;;;5019349;28;20208;-72
2023/04/01 14:15:57;;;;;;;1.23;0.80;;;;;;;;;;5018609;28;20302;-72
2023/04/01 14:18:31;;;;;;;1.00;0.80;;;;;;;;;;5026541;28;20237;-71
2023/04/01 14:21:11;;;;;;;0.70;0.70;;;;;;;;;;5032164;28;20206;-72
2023/04/01 14:23:54;;;;;;;1.07;0.73;;;;;;;;;;5029248;28;20214;-71
2023/04/01 14:26:30;;;;;;;1.20;0.63;;;;;;;;;;5026340;28;20247;-72
2023/04/01 14:29:02;;;;;;;0.63;0.60;;;;;;;;;;5024496;28;20199;-71
2023/04/01 14:31:35;;;;;;;1.23;0.80;;;;;;;;;;5029705;28;20208;-71
2023/04/01 14:34:07;;;;;;;0.60;0.60;;;;;;;;;;5026100;28;20298;-72
2023/04/01 14:36:40;;;;;;;0.77;0.70;;;;;;;;;;5026256;28;20220;-71
2023/04/01 14:39:16;;;;;;;0.70;0.67;;;;;;;;;;5032055;28;20208;-71
2023/04/01 14:41:47;;;;;;;0.83;0.83;;;;;;;;;;5030969;28;20202;-72
2023/04/01 14:44:28;;;;;;;1.30;0.90;;;;;;;;;;5029921;28;20791;-72
2023/04/01 14:47:10;;;;;;;0.80;0.80;;;;;;;;;;5023566;28;20211;-71
2023/04/01 14:49:37;;;;;;;1.33;1.10;;;;;;;;;;5023549;28;20607;-71
2023/04/01 14:52:10;;;;;;;1.30;1.20;;;;;;;;;;5029352;28;20204;-71
2023/04/01 14:54:38;;;;;;;1.33;1.23;;;;;;;;;;5020390;28;20210;-72
2023/04/01 14:57:10;;;;;;;1.10;1.00;;;;;;;;;;5020206;28;20224;-71
2023/04/01 14:59:40;;;;;;;1.73;1.40;;;;;;;;;;5028526;28;20259;-72
2023/04/01 15:02:16;;;;;;;1.33;1.23;;;;;;;;;;5028133;28;20203;-71
2023/04/01 15:04:48;;;;;;;1.63;1.47;;;;;;;;;;5025551;28;20249;-71
2023/04/01 15:07:22;;;;;;;2.23;1.70;;;;;;;;;;5024200;28;20235;-71
2023/04/01 15:09:55;;;;;;;2.17;1.70;;;;;;;;;;5026571;28;20210;-72
2023/04/01 15:12:27;;;;;;;1.30;1.20;;;;;;;;;;5021865;28;20209;-72
2023/04/01 15:14:59;;;;;;;3.17;1.57;;;;;;;;;;5019509;28;20243;-71
2023/04/01 15:17:37;;;;;;;1.90;1.70;;;;;;;;;;5028367;28;21010;-71
2023/04/01 15:20:40;;;;;;;2.70;1.97;;;;;;;;;;5023892;28;20316;-71
2023/04/01 15:23:14;;;;;;;2.30;2.07;;;;;;;;;;5018238;28;20199;-71
2023/04/01 15:25:47;;;;;;;3.40;1.80;;;;;;;;;;5026777;28;20223;-71